sensor_id;sensor_type;location;lat;lon;timestamp;temperature;humidity
10083;DHT22;5080;48.528;8.078;2023-11-21T00:00:23;10.80;99.90
10083;DHT22;5080;48.528;8.078;2023-11-21T00:02:52;10.80;99.90
10083;DHT22;5080;48.528;8.078;2023-11-21T00:05:19;11.00;99.90
10083;DHT22;5080;48.528;8.078;2023-11-21T00:07:48;10.80;99.90
10083;DHT22;5080;48.528;8.078;2023-11-21T00:10:17;10.80;99.90
10083;DHT22;5080;48.528;8.078;2023-11-21T00:12:43;10.80;99.90
10083;DHT22;5080;48.528;8.078;2023-11-21T00:15:13;10.80;99.90
10083;DHT22;5080;48.528;8.078;2023-11-21T00:17:41;10.90;99.90
10083;DHT22;5080;48.528;8.078;2023-11-21T00:20:09;10.70;99.90
10083;DHT22;5080;48.528;8.078;2023-11-21T00:22:38;10.80;99.90
10083;DHT22;5080;48.528;8.078;2023-11-21T00:25:06;10.70;99.90
10083;DHT22;5080;48.528;8.078;2023-11-21T00:27:34;10.70;99.90
10083;DHT22;5080;48.528;8.078;2023-11-21T00:30:01;10.80;99.90
10083;DHT22;5080;48.528;8.078;2023-11-21T00:32:29;10.90;99.90
10083;DHT22;5080;48.528;8.078;2023-11-21T00:34:56;10.80;99.90
10083;DHT22;5080;48.528;8.078;2023-11-21T00:37:24;10.80;99.90
10083;DHT22;5080;48.528;8.078;2023-11-21T00:39:51;10.80;99.90
10083;DHT22;5080;48.528;8.078;2023-11-21T00:42:17;10.80;99.90
10083;DHT22;5080;48.528;8.078;2023-11-21T00:44:43;10.80;99.90
10083;DHT22;5080;48.528;8.078;2023-11-21T00:47:11;10.80;99.90
10083;DHT22;5080;48.528;8.078;2023-11-21T00:49:37;10.70;99.90
10083;DHT22;5080;48.528;8.078;2023-11-21T00:52:05;10.70;99.90
10083;DHT22;5080;48.528;8.078;2023-11-21T00:54:33;10.80;99.90
10083;DHT22;5080;48.528;8.078;2023-11-21T00:57:00;10.80;99.90
10083;DHT22;5080;48.528;8.078;2023-11-21T00:59:26;10.80;99.90
10083;DHT22;5080;48.528;8.078;2023-11-21T01:01:53;10.90;99.90
10083;DHT22;5080;48.528;8.078;2023-11-21T01:04:20;10.90;99.90
10083;DHT22;5080;48.528;8.078;2023-11-21T01:06:47;11.10;99.90
10083;DHT22;5080;48.528;8.078;2023-11-21T01:09:14;10.90;99.90
10083;DHT22;5080;48.528;8.078;2023-11-21T01:11:45;10.90;99.90
10083;DHT22;5080;48.528;8.078;2023-11-21T01:14:12;10.80;99.90
10083;DHT22;5080;48.528;8.078;2023-11-21T01:16:39;10.80;99.90
10083;DHT22;5080;48.528;8.078;2023-11-21T01:19:05;10.80;99.90
10083;DHT22;5080;48.528;8.078;2023-11-21T01:21:32;10.70;99.90
10083;DHT22;5080;48.528;8.078;2023-11-21T01:23:59;10.60;99.90
10083;DHT22;5080;48.528;8.078;2023-11-21T01:26:26;10.70;99.90
10083;DHT22;5080;48.528;8.078;2023-11-21T01:28:54;10.60;99.90
10083;DHT22;5080;48.528;8.078;2023-11-21T01:31:20;10.60;99.90
10083;DHT22;5080;48.528;8.078;2023-11-21T01:33:47;10.60;99.90
10083;DHT22;5080;48.528;8.078;2023-11-21T01:36:14;10.60;99.90
10083;DHT22;5080;48.528;8.078;2023-11-21T01:38:41;10.60;99.90
10083;DHT22;5080;48.528;8.078;2023-11-21T01:41:07;10.70;99.90
10083;DHT22;5080;48.528;8.078;2023-11-21T01:43:36;10.70;99.90
10083;DHT22;5080;48.528;8.078;2023-11-21T01:46:05;10.70;99.90
10083;DHT22;5080;48.528;8.078;2023-11-21T01:48:33;10.70;99.90
10083;DHT22;5080;48.528;8.078;2023-11-21T01:51:00;10.70;99.90
10083;DHT22;5080;48.528;8.078;2023-11-21T01:53:27;10.70;99.90
10083;DHT22;5080;48.528;8.078;2023-11-21T01:55:55;10.70;99.90
10083;DHT22;5080;48.528;8.078;2023-11-21T01:58:23;10.60;99.90
10083;DHT22;5080;48.528;8.078;2023-11-21T02:00:50;10.70;99.90
10083;DHT22;5080;48.528;8.078;2023-11-21T02:03:19;10.70;99.90
10083;DHT22;5080;48.528;8.078;2023-11-21T02:05:46;10.70;99.90
10083;DHT22;5080;48.528;8.078;2023-11-21T02:08:13;10.60;99.90
10083;DHT22;5080;48.528;8.078;2023-11-21T02:10:40;10.60;99.90
10083;DHT22;5080;48.528;8.078;2023-11-21T02:13:06;10.70;99.90
10083;DHT22;5080;48.528;8.078;2023-11-21T02:15:33;10.80;99.90
10083;DHT22;5080;48.528;8.078;2023-11-21T02:18:01;10.60;99.90
10083;DHT22;5080;48.528;8.078;2023-11-21T02:20:29;10.60;99.90
10083;DHT22;5080;48.528;8.078;2023-11-21T02:22:58;10.60;99.90
10083;DHT22;5080;48.528;8.078;2023-11-21T02:25:25;10.60;99.90
10083;DHT22;5080;48.528;8.078;2023-11-21T02:27:53;10.60;99.90
10083;DHT22;5080;48.528;8.078;2023-11-21T02:30:20;10.70;99.90
10083;DHT22;5080;48.528;8.078;2023-11-21T02:32:47;10.70;99.90
10083;DHT22;5080;48.528;8.078;2023-11-21T02:35:15;10.70;99.90
10083;DHT22;5080;48.528;8.078;2023-11-21T02:37:42;10.70;99.90
10083;DHT22;5080;48.528;8.078;2023-11-21T02:40:11;10.70;99.90
10083;DHT22;5080;48.528;8.078;2023-11-21T02:42:39;10.70;99.90
10083;DHT22;5080;48.528;8.078;2023-11-21T02:45:07;10.70;99.90
10083;DHT22;5080;48.528;8.078;2023-11-21T02:47:34;10.70;99.90
10083;DHT22;5080;48.528;8.078;2023-11-21T02:50:01;10.70;99.90
10083;DHT22;5080;48.528;8.078;2023-11-21T02:52:27;10.90;99.90
10083;DHT22;5080;48.528;8.078;2023-11-21T02:54:54;10.80;99.90
10083;DHT22;5080;48.528;8.078;2023-11-21T02:57:22;10.80;99.90
10083;DHT22;5080;48.528;8.078;2023-11-21T02:59:49;10.80;99.90
10083;DHT22;5080;48.528;8.078;2023-11-21T03:02:16;10.80;99.90
10083;DHT22;5080;48.528;8.078;2023-11-21T03:04:43;10.80;99.90
10083;DHT22;5080;48.528;8.078;2023-11-21T03:07:10;10.80;99.90
10083;DHT22;5080;48.528;8.078;2023-11-21T03:09:36;10.80;99.90
10083;DHT22;5080;48.528;8.078;2023-11-21T03:12:04;10.80;99.90
10083;DHT22;5080;48.528;8.078;2023-11-21T03:14:32;10.90;99.90
10083;DHT22;5080;48.528;8.078;2023-11-21T03:16:59;10.90;99.90
10083;DHT22;5080;48.528;8.078;2023-11-21T03:19:26;10.80;99.90
10083;DHT22;5080;48.528;8.078;2023-11-21T03:21:52;10.80;99.90
10083;DHT22;5080;48.528;8.078;2023-11-21T03:24:19;10.90;99.90
10083;DHT22;5080;48.528;8.078;2023-11-21T03:26:48;10.90;99.90
10083;DHT22;5080;48.528;8.078;2023-11-21T03:29:15;10.90;99.90
10083;DHT22;5080;48.528;8.078;2023-11-21T03:31:43;10.90;99.90
10083;DHT22;5080;48.528;8.078;2023-11-21T03:34:15;10.90;99.90
10083;DHT22;5080;48.528;8.078;2023-11-21T03:36:43;10.80;99.90
10083;DHT22;5080;48.528;8.078;2023-11-21T03:39:09;10.80;99.90
10083;DHT22;5080;48.528;8.078;2023-11-21T03:41:36;10.80;99.90
10083;DHT22;5080;48.528;8.078;2023-11-21T03:44:03;10.80;99.90
10083;DHT22;5080;48.528;8.078;2023-11-21T03:46:30;10.80;99.90
10083;DHT22;5080;48.528;8.078;2023-11-21T03:48:58;10.90;99.90
10083;DHT22;5080;48.528;8.078;2023-11-21T03:51:25;10.90;99.90
10083;DHT22;5080;48.528;8.078;2023-11-21T03:53:51;10.90;99.90
10083;DHT22;5080;48.528;8.078;2023-11-21T03:56:19;11.00;99.90
10083;DHT22;5080;48.528;8.078;2023-11-21T03:58:47;10.90;99.90
10083;DHT22;5080;48.528;8.078;2023-11-21T04:01:19;10.90;99.90
10083;DHT22;5080;48.528;8.078;2023-11-21T04:03:47;10.90;99.90
10083;DHT22;5080;48.528;8.078;2023-11-21T04:06:15;10.80;99.90
10083;DHT22;5080;48.528;8.078;2023-11-21T04:08:42;10.90;99.90
10083;DHT22;5080;48.528;8.078;2023-11-21T04:11:09;10.90;99.90
10083;DHT22;5080;48.528;8.078;2023-11-21T04:13:37;10.90;99.90
10083;DHT22;5080;48.528;8.078;2023-11-21T04:16:05;10.90;99.90
10083;DHT22;5080;48.528;8.078;2023-11-21T04:18:32;10.90;99.90
10083;DHT22;5080;48.528;8.078;2023-11-21T04:20:59;11.10;99.90
10083;DHT22;5080;48.528;8.078;2023-11-21T04:23:29;11.20;99.90
10083;DHT22;5080;48.528;8.078;2023-11-21T04:25:57;10.90;99.90
10083;DHT22;5080;48.528;8.078;2023-11-21T04:28:24;10.90;99.90
10083;DHT22;5080;48.528;8.078;2023-11-21T04:30:51;10.90;99.90
10083;DHT22;5080;48.528;8.078;2023-11-21T04:33:18;11.00;99.90
10083;DHT22;5080;48.528;8.078;2023-11-21T04:35:45;10.90;99.90
10083;DHT22;5080;48.528;8.078;2023-11-21T04:38:12;11.00;99.90
10083;DHT22;5080;48.528;8.078;2023-11-21T04:40:40;11.00;99.90
10083;DHT22;5080;48.528;8.078;2023-11-21T04:43:06;11.00;99.90
10083;DHT22;5080;48.528;8.078;2023-11-21T04:45:32;10.90;99.90
10083;DHT22;5080;48.528;8.078;2023-11-21T04:47:59;10.90;99.90
10083;DHT22;5080;48.528;8.078;2023-11-21T04:50:26;10.90;99.90
10083;DHT22;5080;48.528;8.078;2023-11-21T04:52:53;10.80;99.90
10083;DHT22;5080;48.528;8.078;2023-11-21T04:55:20;10.70;99.90
10083;DHT22;5080;48.528;8.078;2023-11-21T04:57:48;10.80;99.90
10083;DHT22;5080;48.528;8.078;2023-11-21T05:00:15;10.70;99.90
10083;DHT22;5080;48.528;8.078;2023-11-21T05:02:42;10.70;99.90
10083;DHT22;5080;48.528;8.078;2023-11-21T05:05:10;10.70;99.90
10083;DHT22;5080;48.528;8.078;2023-11-21T05:07:36;10.80;99.90
10083;DHT22;5080;48.528;8.078;2023-11-21T05:10:05;10.80;99.90
10083;DHT22;5080;48.528;8.078;2023-11-21T05:12:34;10.80;99.90
10083;DHT22;5080;48.528;8.078;2023-11-21T05:15:05;10.80;99.90
10083;DHT22;5080;48.528;8.078;2023-11-21T05:17:35;10.70;99.90
10083;DHT22;5080;48.528;8.078;2023-11-21T05:20:02;10.80;99.90
10083;DHT22;5080;48.528;8.078;2023-11-21T05:22:33;10.80;99.90
10083;DHT22;5080;48.528;8.078;2023-11-21T05:25:01;10.90;99.90
10083;DHT22;5080;48.528;8.078;2023-11-21T05:27:29;10.90;99.90
10083;DHT22;5080;48.528;8.078;2023-11-21T05:29:56;10.90;99.90
10083;DHT22;5080;48.528;8.078;2023-11-21T05:32:24;11.00;99.90
10083;DHT22;5080;48.528;8.078;2023-11-21T05:34:52;10.90;99.90
10083;DHT22;5080;48.528;8.078;2023-11-21T05:37:19;10.90;99.90
10083;DHT22;5080;48.528;8.078;2023-11-21T05:39:45;10.90;99.90
10083;DHT22;5080;48.528;8.078;2023-11-21T05:42:12;11.10;99.90
10083;DHT22;5080;48.528;8.078;2023-11-21T05:44:41;10.90;99.90
10083;DHT22;5080;48.528;8.078;2023-11-21T05:47:08;10.90;99.90
10083;DHT22;5080;48.528;8.078;2023-11-21T05:49:36;10.90;99.90
10083;DHT22;5080;48.528;8.078;2023-11-21T05:52:04;10.90;99.90
10083;DHT22;5080;48.528;8.078;2023-11-21T05:54:31;10.90;99.90
10083;DHT22;5080;48.528;8.078;2023-11-21T05:56:58;10.90;99.90
10083;DHT22;5080;48.528;8.078;2023-11-21T05:59:25;10.90;99.90
10083;DHT22;5080;48.528;8.078;2023-11-21T06:01:52;10.90;99.90
10083;DHT22;5080;48.528;8.078;2023-11-21T06:04:19;10.80;99.90
10083;DHT22;5080;48.528;8.078;2023-11-21T06:06:51;10.80;99.90
10083;DHT22;5080;48.528;8.078;2023-11-21T06:09:18;10.80;99.90
10083;DHT22;5080;48.528;8.078;2023-11-21T06:11:44;10.70;99.90
10083;DHT22;5080;48.528;8.078;2023-11-21T06:14:11;10.70;99.90
10083;DHT22;5080;48.528;8.078;2023-11-21T06:16:38;10.70;99.90
10083;DHT22;5080;48.528;8.078;2023-11-21T06:19:05;10.70;99.90
10083;DHT22;5080;48.528;8.078;2023-11-21T06:21:32;10.70;99.90
10083;DHT22;5080;48.528;8.078;2023-11-21T06:24:02;10.70;99.90
10083;DHT22;5080;48.528;8.078;2023-11-21T06:26:29;10.80;99.90
10083;DHT22;5080;48.528;8.078;2023-11-21T06:28:57;10.80;99.90
10083;DHT22;5080;48.528;8.078;2023-11-21T06:31:24;10.70;99.90
10083;DHT22;5080;48.528;8.078;2023-11-21T06:33:51;10.80;99.90
10083;DHT22;5080;48.528;8.078;2023-11-21T06:36:18;10.70;99.90
10083;DHT22;5080;48.528;8.078;2023-11-21T06:38:45;10.80;99.90
10083;DHT22;5080;48.528;8.078;2023-11-21T06:41:13;10.80;99.90
10083;DHT22;5080;48.528;8.078;2023-11-21T06:43:41;10.80;99.90
10083;DHT22;5080;48.528;8.078;2023-11-21T06:46:11;10.80;99.90
10083;DHT22;5080;48.528;8.078;2023-11-21T06:48:40;10.80;99.90
10083;DHT22;5080;48.528;8.078;2023-11-21T06:51:07;10.80;99.90
10083;DHT22;5080;48.528;8.078;2023-11-21T06:53:34;10.80;99.90
10083;DHT22;5080;48.528;8.078;2023-11-21T06:56:02;10.80;99.90
10083;DHT22;5080;48.528;8.078;2023-11-21T06:58:30;10.70;99.90
10083;DHT22;5080;48.528;8.078;2023-11-21T07:00:57;10.70;99.90
10083;DHT22;5080;48.528;8.078;2023-11-21T07:03:24;10.60;99.90
10083;DHT22;5080;48.528;8.078;2023-11-21T07:05:51;10.60;99.90
10083;DHT22;5080;48.528;8.078;2023-11-21T07:08:18;10.70;99.90
10083;DHT22;5080;48.528;8.078;2023-11-21T07:10:45;10.70;99.90
10083;DHT22;5080;48.528;8.078;2023-11-21T07:13:12;10.60;99.90
10083;DHT22;5080;48.528;8.078;2023-11-21T07:15:40;10.60;99.90
10083;DHT22;5080;48.528;8.078;2023-11-21T07:18:09;10.70;99.90
10083;DHT22;5080;48.528;8.078;2023-11-21T07:20:35;10.70;99.90
10083;DHT22;5080;48.528;8.078;2023-11-21T07:23:02;10.70;99.90
10083;DHT22;5080;48.528;8.078;2023-11-21T07:25:29;10.70;99.90
10083;DHT22;5080;48.528;8.078;2023-11-21T07:27:57;10.70;99.90
10083;DHT22;5080;48.528;8.078;2023-11-21T07:30:24;10.70;99.90
10083;DHT22;5080;48.528;8.078;2023-11-21T07:32:52;10.70;99.90
10083;DHT22;5080;48.528;8.078;2023-11-21T07:35:19;10.80;99.90
10083;DHT22;5080;48.528;8.078;2023-11-21T07:37:46;10.80;99.90
10083;DHT22;5080;48.528;8.078;2023-11-21T07:40:14;10.80;99.90
10083;DHT22;5080;48.528;8.078;2023-11-21T07:42:42;10.90;99.90
10083;DHT22;5080;48.528;8.078;2023-11-21T07:45:09;10.90;99.90
10083;DHT22;5080;48.528;8.078;2023-11-21T07:47:36;10.90;99.90
10083;DHT22;5080;48.528;8.078;2023-11-21T07:50:07;10.80;99.90
10083;DHT22;5080;48.528;8.078;2023-11-21T07:52:34;10.90;99.90
10083;DHT22;5080;48.528;8.078;2023-11-21T07:55:01;10.90;99.90
10083;DHT22;5080;48.528;8.078;2023-11-21T07:57:28;10.90;99.90
10083;DHT22;5080;48.528;8.078;2023-11-21T07:59:54;10.80;99.90
10083;DHT22;5080;48.528;8.078;2023-11-21T08:02:21;10.70;99.90
10083;DHT22;5080;48.528;8.078;2023-11-21T08:04:48;10.50;99.90
10083;DHT22;5080;48.528;8.078;2023-11-21T08:07:17;10.60;99.90
10083;DHT22;5080;48.528;8.078;2023-11-21T08:09:44;10.60;99.90
10083;DHT22;5080;48.528;8.078;2023-11-21T08:12:12;10.80;99.90
10083;DHT22;5080;48.528;8.078;2023-11-21T08:14:40;10.50;99.90
10083;DHT22;5080;48.528;8.078;2023-11-21T08:17:07;10.60;99.90
10083;DHT22;5080;48.528;8.078;2023-11-21T08:19:35;10.60;99.90
10083;DHT22;5080;48.528;8.078;2023-11-21T08:22:02;10.60;99.90
10083;DHT22;5080;48.528;8.078;2023-11-21T08:24:30;10.60;99.90
10083;DHT22;5080;48.528;8.078;2023-11-21T08:26:57;10.60;99.90
10083;DHT22;5080;48.528;8.078;2023-11-21T08:29:24;10.60;99.90
10083;DHT22;5080;48.528;8.078;2023-11-21T08:31:51;10.60;99.90
10083;DHT22;5080;48.528;8.078;2023-11-21T08:34:18;10.60;99.90
10083;DHT22;5080;48.528;8.078;2023-11-21T08:36:44;10.60;99.90
10083;DHT22;5080;48.528;8.078;2023-11-21T08:39:12;10.60;99.90
10083;DHT22;5080;48.528;8.078;2023-11-21T08:41:41;10.70;99.90
10083;DHT22;5080;48.528;8.078;2023-11-21T08:44:08;10.70;99.90
10083;DHT22;5080;48.528;8.078;2023-11-21T08:46:35;10.70;99.90
10083;DHT22;5080;48.528;8.078;2023-11-21T08:49:03;10.70;99.90
10083;DHT22;5080;48.528;8.078;2023-11-21T08:51:31;10.60;99.90
10083;DHT22;5080;48.528;8.078;2023-11-21T08:53:58;10.60;99.90
10083;DHT22;5080;48.528;8.078;2023-11-21T08:56:27;10.60;99.90
10083;DHT22;5080;48.528;8.078;2023-11-21T08:58:56;10.70;99.90
10083;DHT22;5080;48.528;8.078;2023-11-21T09:01:22;10.70;99.90
10083;DHT22;5080;48.528;8.078;2023-11-21T09:03:50;10.70;99.90
10083;DHT22;5080;48.528;8.078;2023-11-21T09:06:17;10.90;99.90
10083;DHT22;5080;48.528;8.078;2023-11-21T09:08:45;10.70;99.90
10083;DHT22;5080;48.528;8.078;2023-11-21T09:11:12;10.60;99.90
10083;DHT22;5080;48.528;8.078;2023-11-21T09:13:39;10.60;99.90
10083;DHT22;5080;48.528;8.078;2023-11-21T09:16:08;10.60;99.90
10083;DHT22;5080;48.528;8.078;2023-11-21T09:18:34;10.60;99.90
10083;DHT22;5080;48.528;8.078;2023-11-21T09:21:01;10.70;99.90
10083;DHT22;5080;48.528;8.078;2023-11-21T09:23:29;10.60;99.90
10083;DHT22;5080;48.528;8.078;2023-11-21T09:25:56;10.60;99.90
10083;DHT22;5080;48.528;8.078;2023-11-21T09:28:25;10.70;99.90
10083;DHT22;5080;48.528;8.078;2023-11-21T09:30:52;10.80;99.90
10083;DHT22;5080;48.528;8.078;2023-11-21T09:33:20;10.70;99.90
10083;DHT22;5080;48.528;8.078;2023-11-21T09:35:47;10.80;99.90
10083;DHT22;5080;48.528;8.078;2023-11-21T09:38:16;10.90;99.90
10083;DHT22;5080;48.528;8.078;2023-11-21T09:40:43;10.90;99.90
10083;DHT22;5080;48.528;8.078;2023-11-21T09:43:16;10.90;99.90
10083;DHT22;5080;48.528;8.078;2023-11-21T09:45:45;10.90;99.90
10083;DHT22;5080;48.528;8.078;2023-11-21T09:48:13;10.80;99.90
10083;DHT22;5080;48.528;8.078;2023-11-21T09:50:43;10.80;99.90
10083;DHT22;5080;48.528;8.078;2023-11-21T09:53:13;10.70;99.90
10083;DHT22;5080;48.528;8.078;2023-11-21T09:55:45;10.60;99.90
10083;DHT22;5080;48.528;8.078;2023-11-21T09:58:13;10.60;99.90
10083;DHT22;5080;48.528;8.078;2023-11-21T10:00:42;10.50;99.90
10083;DHT22;5080;48.528;8.078;2023-11-21T10:03:09;10.50;99.90
10083;DHT22;5080;48.528;8.078;2023-11-21T10:05:37;10.40;99.90
10083;DHT22;5080;48.528;8.078;2023-11-21T10:08:07;10.40;99.90
10083;DHT22;5080;48.528;8.078;2023-11-21T10:10:36;10.50;99.90
10083;DHT22;5080;48.528;8.078;2023-11-21T10:13:05;10.50;99.90
10083;DHT22;5080;48.528;8.078;2023-11-21T10:15:34;10.40;99.90
10083;DHT22;5080;48.528;8.078;2023-11-21T10:18:03;10.50;99.90
10083;DHT22;5080;48.528;8.078;2023-11-21T10:20:32;10.70;99.90
10083;DHT22;5080;48.528;8.078;2023-11-21T10:23:00;10.80;99.90
10083;DHT22;5080;48.528;8.078;2023-11-21T10:25:30;10.80;99.90
10083;DHT22;5080;48.528;8.078;2023-11-21T10:27:58;10.90;99.90
10083;DHT22;5080;48.528;8.078;2023-11-21T10:30:30;10.70;99.90
10083;DHT22;5080;48.528;8.078;2023-11-21T10:32:59;10.60;99.90
10083;DHT22;5080;48.528;8.078;2023-11-21T10:35:38;10.50;99.90
10083;DHT22;5080;48.528;8.078;2023-11-21T10:38:05;10.60;99.90
10083;DHT22;5080;48.528;8.078;2023-11-21T10:40:37;10.70;99.90
10083;DHT22;5080;48.528;8.078;2023-11-21T10:43:08;10.80;99.90
10083;DHT22;5080;48.528;8.078;2023-11-21T10:45:36;10.90;99.90
10083;DHT22;5080;48.528;8.078;2023-11-21T10:48:05;10.80;99.90
10083;DHT22;5080;48.528;8.078;2023-11-21T10:50:33;10.80;99.90
10083;DHT22;5080;48.528;8.078;2023-11-21T10:53:02;10.80;99.90
10083;DHT22;5080;48.528;8.078;2023-11-21T10:55:29;10.90;99.90
10083;DHT22;5080;48.528;8.078;2023-11-21T10:58:00;10.80;99.90
10083;DHT22;5080;48.528;8.078;2023-11-21T11:00:29;10.70;99.90
10083;DHT22;5080;48.528;8.078;2023-11-21T11:02:56;10.60;99.90
10083;DHT22;5080;48.528;8.078;2023-11-21T11:05:25;10.60;99.90
10083;DHT22;5080;48.528;8.078;2023-11-21T11:07:58;10.60;99.90
10083;DHT22;5080;48.528;8.078;2023-11-21T11:10:27;10.60;99.90
10083;DHT22;5080;48.528;8.078;2023-11-21T11:12:55;10.50;99.90
10083;DHT22;5080;48.528;8.078;2023-11-21T11:15:24;10.70;99.90
10083;DHT22;5080;48.528;8.078;2023-11-21T11:17:52;10.70;99.90
10083;DHT22;5080;48.528;8.078;2023-11-21T11:20:23;10.60;99.90
10083;DHT22;5080;48.528;8.078;2023-11-21T11:22:59;10.70;99.90
10083;DHT22;5080;48.528;8.078;2023-11-21T11:25:39;10.70;99.90
10083;DHT22;5080;48.528;8.078;2023-11-21T11:28:12;10.80;99.90
10083;DHT22;5080;48.528;8.078;2023-11-21T11:30:51;10.70;99.90
10083;DHT22;5080;48.528;8.078;2023-11-21T11:33:27;10.70;99.90
10083;DHT22;5080;48.528;8.078;2023-11-21T11:36:01;10.70;99.90
10083;DHT22;5080;48.528;8.078;2023-11-21T11:38:31;10.70;99.90
10083;DHT22;5080;48.528;8.078;2023-11-21T11:41:01;10.70;99.90
10083;DHT22;5080;48.528;8.078;2023-11-21T11:43:30;10.80;99.90
10083;DHT22;5080;48.528;8.078;2023-11-21T11:45:59;10.90;99.90
10083;DHT22;5080;48.528;8.078;2023-11-21T11:48:30;11.00;99.90
10083;DHT22;5080;48.528;8.078;2023-11-21T11:51:02;11.10;99.90
10083;DHT22;5080;48.528;8.078;2023-11-21T11:53:35;11.10;99.90
10083;DHT22;5080;48.528;8.078;2023-11-21T11:56:27;11.20;99.90
10083;DHT22;5080;48.528;8.078;2023-11-21T11:58:57;11.20;99.90
10083;DHT22;5080;48.528;8.078;2023-11-21T12:01:26;11.10;99.90
10083;DHT22;5080;48.528;8.078;2023-11-21T12:04:23;11.00;99.90
10083;DHT22;5080;48.528;8.078;2023-11-21T12:06:55;11.00;99.90
10083;DHT22;5080;48.528;8.078;2023-11-21T12:09:24;11.00;99.90
10083;DHT22;5080;48.528;8.078;2023-11-21T12:11:52;11.20;99.90
10083;DHT22;5080;48.528;8.078;2023-11-21T12:14:20;11.10;99.90
10083;DHT22;5080;48.528;8.078;2023-11-21T12:16:48;11.20;99.90
10083;DHT22;5080;48.528;8.078;2023-11-21T12:19:15;11.20;99.90
10083;DHT22;5080;48.528;8.078;2023-11-21T12:21:42;11.20;99.90
10083;DHT22;5080;48.528;8.078;2023-11-21T12:24:10;11.40;99.90
10083;DHT22;5080;48.528;8.078;2023-11-21T12:26:39;11.40;99.90
10083;DHT22;5080;48.528;8.078;2023-11-21T12:29:06;11.50;99.90
10083;DHT22;5080;48.528;8.078;2023-11-21T12:31:33;11.50;99.90
10083;DHT22;5080;48.528;8.078;2023-11-21T12:34:02;11.40;99.90
10083;DHT22;5080;48.528;8.078;2023-11-21T12:36:29;11.50;99.90
10083;DHT22;5080;48.528;8.078;2023-11-21T12:38:56;11.50;99.90
10083;DHT22;5080;48.528;8.078;2023-11-21T12:41:23;11.40;99.90
10083;DHT22;5080;48.528;8.078;2023-11-21T12:43:49;11.20;99.90
10083;DHT22;5080;48.528;8.078;2023-11-21T12:46:17;11.20;99.90
10083;DHT22;5080;48.528;8.078;2023-11-21T12:48:44;11.10;99.90
10083;DHT22;5080;48.528;8.078;2023-11-21T12:51:13;11.10;99.90
10083;DHT22;5080;48.528;8.078;2023-11-21T12:53:41;11.10;99.90
10083;DHT22;5080;48.528;8.078;2023-11-21T12:56:10;11.10;99.90
10083;DHT22;5080;48.528;8.078;2023-11-21T12:58:47;11.00;99.90
10083;DHT22;5080;48.528;8.078;2023-11-21T13:01:14;11.00;99.90
10083;DHT22;5080;48.528;8.078;2023-11-21T13:03:46;11.00;99.90
10083;DHT22;5080;48.528;8.078;2023-11-21T13:06:15;11.10;99.90
10083;DHT22;5080;48.528;8.078;2023-11-21T13:08:44;11.10;99.90
10083;DHT22;5080;48.528;8.078;2023-11-21T13:11:11;11.10;99.90
10083;DHT22;5080;48.528;8.078;2023-11-21T13:13:40;11.10;99.90
10083;DHT22;5080;48.528;8.078;2023-11-21T13:16:08;11.00;99.90
10083;DHT22;5080;48.528;8.078;2023-11-21T13:18:35;11.00;99.90
10083;DHT22;5080;48.528;8.078;2023-11-21T13:21:03;11.00;99.90
10083;DHT22;5080;48.528;8.078;2023-11-21T13:23:37;11.00;99.90
10083;DHT22;5080;48.528;8.078;2023-11-21T13:26:04;11.00;99.90
10083;DHT22;5080;48.528;8.078;2023-11-21T13:28:31;11.00;99.90
10083;DHT22;5080;48.528;8.078;2023-11-21T13:31:00;10.90;99.90
10083;DHT22;5080;48.528;8.078;2023-11-21T13:33:28;10.70;99.90
10083;DHT22;5080;48.528;8.078;2023-11-21T13:35:55;10.60;99.90
10083;DHT22;5080;48.528;8.078;2023-11-21T13:38:23;10.50;99.90
10083;DHT22;5080;48.528;8.078;2023-11-21T13:40:52;10.70;99.90
10083;DHT22;5080;48.528;8.078;2023-11-21T13:43:21;10.60;99.90
10083;DHT22;5080;48.528;8.078;2023-11-21T13:45:50;10.50;99.90
10083;DHT22;5080;48.528;8.078;2023-11-21T13:48:24;10.50;99.90
10083;DHT22;5080;48.528;8.078;2023-11-21T13:50:57;10.50;99.90
10083;DHT22;5080;48.528;8.078;2023-11-21T13:53:26;10.50;99.90
10083;DHT22;5080;48.528;8.078;2023-11-21T13:55:55;10.50;99.90
10083;DHT22;5080;48.528;8.078;2023-11-21T13:58:23;10.60;99.90
10083;DHT22;5080;48.528;8.078;2023-11-21T14:01:00;10.60;99.90
10083;DHT22;5080;48.528;8.078;2023-11-21T14:03:31;10.60;99.90
10083;DHT22;5080;48.528;8.078;2023-11-21T14:06:05;10.60;99.90
10083;DHT22;5080;48.528;8.078;2023-11-21T14:08:39;10.40;99.90
10083;DHT22;5080;48.528;8.078;2023-11-21T14:11:08;10.40;99.90
10083;DHT22;5080;48.528;8.078;2023-11-21T14:13:37;10.50;99.90
10083;DHT22;5080;48.528;8.078;2023-11-21T14:16:05;10.50;99.90
10083;DHT22;5080;48.528;8.078;2023-11-21T14:18:35;10.40;99.90
10083;DHT22;5080;48.528;8.078;2023-11-21T14:21:09;10.50;99.90
10083;DHT22;5080;48.528;8.078;2023-11-21T14:23:36;10.60;99.90
10083;DHT22;5080;48.528;8.078;2023-11-21T14:26:04;10.60;99.90
10083;DHT22;5080;48.528;8.078;2023-11-21T14:28:33;10.60;99.90
10083;DHT22;5080;48.528;8.078;2023-11-21T14:31:00;10.70;99.90
10083;DHT22;5080;48.528;8.078;2023-11-21T14:33:27;10.70;99.90
10083;DHT22;5080;48.528;8.078;2023-11-21T14:35:54;10.70;99.90
10083;DHT22;5080;48.528;8.078;2023-11-21T14:38:20;10.60;99.90
10083;DHT22;5080;48.528;8.078;2023-11-21T14:40:48;10.60;99.90
10083;DHT22;5080;48.528;8.078;2023-11-21T14:43:15;10.70;99.90
10083;DHT22;5080;48.528;8.078;2023-11-21T14:45:44;10.60;99.90
10083;DHT22;5080;48.528;8.078;2023-11-21T14:48:11;10.60;99.90
10083;DHT22;5080;48.528;8.078;2023-11-21T14:50:42;10.60;99.90
10083;DHT22;5080;48.528;8.078;2023-11-21T14:53:17;10.60;99.90
10083;DHT22;5080;48.528;8.078;2023-11-21T14:56:03;10.60;99.90
10083;DHT22;5080;48.528;8.078;2023-11-21T14:58:30;10.60;99.90
10083;DHT22;5080;48.528;8.078;2023-11-21T15:00:59;10.60;99.90
10083;DHT22;5080;48.528;8.078;2023-11-21T15:03:27;10.60;99.90
10083;DHT22;5080;48.528;8.078;2023-11-21T15:06:15;10.60;99.90
10083;DHT22;5080;48.528;8.078;2023-11-21T15:08:48;10.60;99.90
10083;DHT22;5080;48.528;8.078;2023-11-21T15:11:21;10.60;99.90
10083;DHT22;5080;48.528;8.078;2023-11-21T15:13:53;10.50;99.90
10083;DHT22;5080;48.528;8.078;2023-11-21T15:16:21;10.50;99.90
10083;DHT22;5080;48.528;8.078;2023-11-21T15:18:48;10.40;99.90
10083;DHT22;5080;48.528;8.078;2023-11-21T15:21:15;10.40;99.90
10083;DHT22;5080;48.528;8.078;2023-11-21T15:23:41;10.50;99.90
10083;DHT22;5080;48.528;8.078;2023-11-21T15:26:08;10.60;99.90
10083;DHT22;5080;48.528;8.078;2023-11-21T15:28:35;10.50;99.90
10083;DHT22;5080;48.528;8.078;2023-11-21T15:31:02;10.50;99.90
10083;DHT22;5080;48.528;8.078;2023-11-21T15:33:31;10.50;99.90
10083;DHT22;5080;48.528;8.078;2023-11-21T15:35:58;10.50;99.90
10083;DHT22;5080;48.528;8.078;2023-11-21T15:38:25;10.60;99.90
10083;DHT22;5080;48.528;8.078;2023-11-21T15:40:51;10.60;99.90
10083;DHT22;5080;48.528;8.078;2023-11-21T15:43:19;10.50;99.90
10083;DHT22;5080;48.528;8.078;2023-11-21T15:45:46;10.60;99.90
10083;DHT22;5080;48.528;8.078;2023-11-21T15:48:13;10.50;99.90
10083;DHT22;5080;48.528;8.078;2023-11-21T15:50:43;10.50;99.90